KANB

Anniston Regional Airport

Anniston, Alabama, USA
METAR KANB 210353Z AUTO 00000KT 10SM CLR 23/21 A3006 RMK AO2 SLP172 T02330211
Observed Flight Rules
Aug-21 @ 03:53 UTC (17 minutes ago) Visual Flight Rules
Visibility Clouds
10 miles
  • Clear skies
Temperatures Readings
Current 23°C / 73°F
Dewpoint 21°C / 70°F
Humidity 89%
Altimeter 30.06" Hg
Pressure 1017.2 hPa
Elevation 183
METAR KANB 210353Z AUTO 00000KT 10SM CLR 23/21 A3006 RMK AO2 SLP172 T02330211
Observed Flight Rules
Aug-21 @ 03:53 UTC
(17 minutes ago)
VFR
Clouds
  • Clear skies
Temperature Dewpoint
23°C / 73°F 21°C / 70°F
Humidity Altimeter Pressure
89% 30.06" Hg 1017.2 hPa